createdAt,value
2019-04-25T00:02:40.823Z,97706.34
2019-04-25T00:07:48.685Z,97713.81
2019-04-25T00:12:54.101Z,97697.68
2019-04-25T00:18:02.343Z,97696.77
2019-04-25T00:23:13.893Z,97707.95
2019-04-25T00:28:19.196Z,97701.98
2019-04-25T00:33:24.738Z,97704.01
2019-04-25T00:38:31.775Z,97701.64
2019-04-25T00:43:39.550Z,97713.38
2019-04-25T00:48:45.755Z,97710.38
2019-04-25T00:53:54.703Z,97719.45
2019-04-25T00:59:22.101Z,97732.70
2019-04-25T01:04:31.597Z,97735.99
2019-04-25T01:09:37.641Z,97736.28
2019-04-25T01:14:45.697Z,97741.12
2019-04-25T01:19:54.728Z,97753.56
2019-04-25T01:24:59.484Z,97754.48
2019-04-25T01:30:06.130Z,97769.64
2019-04-25T01:35:19.667Z,97776.50
2019-04-25T01:40:35.735Z,97779.02
2019-04-25T01:45:41.761Z,97781.56
2019-04-25T01:50:48.255Z,97786.95
2019-04-25T01:56:01.632Z,97781.05
2019-04-25T02:01:02.653Z,97778.20
2019-04-25T02:06:09.467Z,97767.00
2019-04-25T02:11:34.044Z,97763.14
2019-04-25T02:16:39.520Z,97765.89
2019-04-25T02:21:45.256Z,97770.22
2019-04-25T02:26:50.603Z,97770.58
2019-04-25T02:31:59.140Z,97765.94
2019-04-25T02:37:08.664Z,97770.20
2019-04-25T02:42:10.639Z,97782.59
2019-04-25T02:47:55.291Z,97785.30
2019-04-25T02:53:11.614Z,97779.98
2019-04-25T02:58:17.665Z,97791.45
2019-04-25T03:03:24.546Z,97790.52
2019-04-25T03:08:30.702Z,97801.23
2019-04-25T03:13:36.496Z,97801.00
2019-04-25T03:19:00.705Z,97792.28
2019-04-25T03:24:10.236Z,97787.44
2019-04-25T03:29:13.793Z,97792.25
2019-04-25T03:34:20.980Z,97802.60
2019-04-25T03:39:27.096Z,97805.37
2019-04-25T03:44:33.745Z,97813.63
2019-04-25T03:49:39.209Z,97816.23
2019-04-25T03:54:45.521Z,97808.59
2019-04-25T03:59:51.567Z,97821.70
2019-04-25T04:04:56.874Z,97820.73
2019-04-25T04:10:04.517Z,97826.16
2019-04-25T04:15:10.419Z,97833.62
2019-04-25T04:20:40.834Z,97838.39
2019-04-25T04:25:46.583Z,97841.23
2019-04-25T04:30:51.795Z,97848.02
2019-04-25T04:35:57.107Z,97857.79
2019-04-25T04:41:03.929Z,97855.84
2019-04-25T04:46:10.195Z,97865.38
2019-04-25T04:51:16.050Z,97864.59
2019-04-25T04:56:25.464Z,97867.37
2019-04-25T05:01:33.720Z,97878.63
2019-04-25T05:06:56.549Z,97882.70
2019-04-25T05:12:01.806Z,97891.00
2019-04-25T05:17:07.439Z,97884.74
2019-04-25T05:22:14.550Z,97878.22
2019-04-25T05:27:32.230Z,97868.91
2019-04-25T05:32:27.045Z,97860.09
2019-04-25T05:37:33.513Z,97854.84
2019-04-25T05:43:10.104Z,97853.05
2019-04-25T05:48:16.279Z,97859.68
2019-04-25T05:53:26.306Z,97846.28
2019-04-25T05:58:33.621Z,97846.75
2019-04-25T06:03:39.928Z,97854.53
2019-04-25T06:08:54.468Z,97839.41
2019-04-25T06:14:03.483Z,97859.41
2019-04-25T06:19:20.023Z,97886.00
2019-04-25T06:24:32.757Z,97889.36
2019-04-25T06:29:38.563Z,97898.91
2019-04-25T06:34:44.470Z,97903.38
2019-04-25T06:39:50.041Z,97887.03
2019-04-25T06:50:18.900Z,97913.37
2019-04-25T06:55:25.984Z,97914.40
2019-04-25T07:00:35.219Z,97925.83
2019-04-25T07:05:40.573Z,97922.44
2019-04-25T07:10:46.850Z,97924.97
2019-04-25T07:15:53.424Z,97921.55
2019-04-25T07:20:59.934Z,97930.13
2019-04-25T07:26:15.305Z,97922.37
2019-04-25T07:31:44.219Z,97937.95
2019-04-25T07:36:49.599Z,97931.13
2019-04-25T07:41:55.830Z,97934.70
2019-04-25T07:47:01.058Z,97927.13
2019-04-25T07:52:06.809Z,97933.72
2019-04-25T07:57:13.565Z,97941.38
2019-04-25T08:02:19.579Z,97941.51
2019-04-25T08:07:24.867Z,97942.09
2019-04-25T08:12:30.539Z,97930.66
2019-04-25T08:17:54.080Z,97925.94
2019-04-25T08:23:01.721Z,97916.44
2019-04-25T08:28:07.377Z,97914.16
2019-04-25T08:45:55.752Z,97932.64
2019-04-25T08:51:08.318Z,97936.91
2019-04-25T09:02:43.565Z,97923.66
2019-04-25T09:07:48.810Z,97922.61
2019-04-25T09:25:27.353Z,97910.73
2019-04-25T09:30:34.926Z,97913.50
2019-04-25T09:35:40.472Z,97907.70
2019-04-25T09:40:46.687Z,97901.77
2019-04-25T09:46:07.113Z,97903.50
2019-04-25T09:51:23.125Z,97879.55
2019-04-25T09:56:33.988Z,97845.08
2019-04-25T10:01:40.182Z,97876.41
2019-04-25T10:06:47.538Z,97864.02
2019-04-25T10:11:54.676Z,97834.72
2019-04-25T10:17:00.137Z,97822.69
2019-04-25T10:22:05.584Z,97817.80
2019-04-25T10:27:13.885Z,97821.41
2019-04-25T10:32:19.188Z,97827.80
2019-04-25T10:37:24.543Z,97817.39
2019-04-25T10:42:30.285Z,97809.92
2019-04-25T10:47:35.522Z,97795.24
2019-04-25T10:52:41.841Z,97790.84
2019-04-25T10:57:48.365Z,97770.66
2019-04-25T11:02:56.690Z,97747.56
2019-04-25T11:08:02.188Z,97750.44
2019-04-25T11:13:07.650Z,97748.45
2019-04-25T11:18:13.107Z,97744.20
2019-04-25T11:23:20.394Z,97737.46
2019-04-25T11:28:26.759Z,97730.88
2019-04-25T11:33:33.477Z,97750.05
2019-04-25T11:38:54.661Z,97758.56
2019-04-25T11:44:00.479Z,97762.13
2019-04-25T11:49:06.770Z,97764.69
2019-04-25T11:54:13.930Z,97754.06
2019-04-25T11:59:19.320Z,97737.39
2019-04-25T12:04:26.182Z,97741.70
2019-04-25T12:09:31.454Z,97724.27
2019-04-25T12:14:36.800Z,97718.52
2019-04-25T12:19:42.068Z,97702.13
2019-04-25T12:24:47.928Z,97711.16
2019-04-25T12:29:53.167Z,97702.36
2019-04-25T12:34:59.431Z,97710.84
2019-04-25T12:40:06.360Z,97663.52
2019-04-25T12:45:21.567Z,97680.88
2019-04-25T12:50:26.779Z,97655.89
2019-04-25T12:55:32.006Z,97652.62
2019-04-25T13:00:47.537Z,97639.16
2019-04-25T13:05:44.866Z,97650.49
2019-04-25T13:10:52.170Z,97633.93
2019-04-25T13:15:57.852Z,97648.51
2019-04-25T13:21:03.536Z,97644.38
2019-04-25T13:26:09.747Z,97631.55
2019-04-25T13:31:37.941Z,97620.95
2019-04-25T13:36:44.291Z,97620.42
2019-04-25T13:41:49.789Z,97613.94
2019-04-25T13:46:55.463Z,97593.10
2019-04-25T13:52:00.811Z,97587.00
2019-04-25T13:57:06.287Z,97576.09
2019-04-25T14:02:12.020Z,97580.01
2019-04-25T14:07:17.426Z,97568.77
2019-04-25T14:12:26.363Z,97568.73
2019-04-25T14:17:55.094Z,97553.72
2019-04-25T14:23:03.482Z,97550.62
2019-04-25T14:28:10.530Z,97543.30
2019-04-25T14:33:15.934Z,97532.61
2019-04-25T14:38:22.695Z,97538.70
2019-04-25T14:43:28.802Z,97537.09
2019-04-25T14:48:34.094Z,97535.55
2019-04-25T14:53:39.436Z,97530.28
2019-04-25T14:58:46.505Z,97518.41
2019-04-25T15:03:51.829Z,97518.70
2019-04-25T15:08:57.062Z,97505.88
2019-04-25T15:14:02.357Z,97503.78
2019-04-25T15:19:07.753Z,97489.51
2019-04-25T15:24:13.709Z,97480.88
2019-04-25T15:29:19.511Z,97475.39
2019-04-25T15:34:27.669Z,97482.96
2019-04-25T15:39:55.690Z,97491.91
2019-04-25T15:45:19.981Z,97491.05
2019-04-25T15:50:27.781Z,97498.05
2019-04-25T15:55:34.887Z,97500.22
2019-04-25T16:00:40.470Z,97498.66
2019-04-25T16:05:45.806Z,97495.48
2019-04-25T16:10:51.857Z,97495.84
2019-04-25T16:15:57.077Z,97489.20
2019-04-25T16:21:02.827Z,97484.27
2019-04-25T16:26:09.232Z,97491.68
2019-04-25T16:31:17.825Z,97491.46
2019-04-25T16:36:23.643Z,97497.16
2019-04-25T16:41:29.207Z,97492.25
2019-04-25T16:46:34.702Z,97500.86
2019-04-25T16:51:40.544Z,97500.59
2019-04-25T16:56:45.952Z,97515.44
2019-04-25T17:01:51.993Z,97520.77
2019-04-25T17:06:57.314Z,97534.25
2019-04-25T17:12:05.340Z,97551.20
2019-04-25T17:17:41.899Z,97549.08
2019-04-25T17:22:48.037Z,97560.17
2019-04-25T17:27:53.326Z,97573.34
2019-04-25T17:33:14.407Z,97595.95
2019-04-25T17:38:38.449Z,97606.06
2019-04-25T17:43:44.621Z,97602.64
2019-04-25T17:48:49.914Z,97604.52
2019-04-25T17:53:55.229Z,97616.15
2019-04-25T17:59:01.021Z,97608.88
2019-04-25T18:04:08.031Z,97627.84
2019-04-25T18:09:14.358Z,97631.09
2019-04-25T18:14:20.323Z,97647.05
2019-04-25T18:19:36.448Z,97640.43
2019-04-25T18:25:03.730Z,97669.59
2019-04-25T18:30:09.737Z,97693.52
2019-04-25T18:35:23.104Z,97721.56
2019-04-25T18:40:46.382Z,97728.25
2019-04-25T18:45:56.240Z,97733.64
2019-04-25T18:51:03.094Z,97747.41
2019-04-25T18:56:15.886Z,97758.34
2019-04-25T19:01:46.256Z,97780.75
2019-04-25T19:06:58.119Z,97797.19
2019-04-25T19:12:01.027Z,97808.05
2019-04-25T19:17:08.128Z,97812.70
2019-04-25T19:22:13.859Z,97817.73
2019-04-25T19:27:24.170Z,97826.02
2019-04-25T19:32:33.690Z,97834.31
2019-04-25T19:37:40.548Z,97845.08
2019-04-25T19:42:49.689Z,97845.78
2019-04-25T19:47:55.164Z,97851.00
2019-04-25T19:53:00.922Z,97848.36
2019-04-25T19:58:06.273Z,97874.22
2019-04-25T20:03:16.558Z,97866.02
2019-04-25T20:08:36.628Z,97867.23
2019-04-25T20:13:42.821Z,97869.89
2019-04-25T20:18:49.786Z,97858.50
2019-04-25T20:23:55.230Z,97863.02
2019-04-25T20:29:00.677Z,97855.84
2019-04-25T20:34:06.390Z,97863.89
2019-04-25T20:39:12.085Z,97873.46
2019-04-25T20:44:17.509Z,97880.66
2019-04-25T20:49:22.974Z,97876.84
2019-04-25T20:54:28.734Z,97874.48
2019-04-25T20:59:34.029Z,97883.87
2019-04-25T21:04:39.376Z,97893.11
2019-04-25T21:09:46.526Z,97900.77
2019-04-25T21:15:10.139Z,97900.42
2019-04-25T21:20:16.116Z,97909.20
2019-04-25T21:25:22.086Z,97912.49
2019-04-25T21:30:27.513Z,97914.36
2019-04-25T21:35:32.881Z,97920.02
2019-04-25T21:41:07.860Z,97908.62
2019-04-25T21:46:13.713Z,97910.64
2019-04-25T21:51:32.708Z,97910.30
2019-04-25T21:56:38.492Z,97915.33
2019-04-25T22:01:44.795Z,97912.98
2019-04-25T22:06:50.592Z,97894.38
2019-04-25T22:11:57.324Z,97883.17
2019-04-25T22:17:04.336Z,97912.06
2019-04-25T22:22:10.074Z,97907.56
2019-04-25T22:27:21.448Z,97911.38
2019-04-25T22:32:49.673Z,97901.33
2019-04-25T22:37:54.949Z,97902.12
2019-04-25T22:43:01.656Z,97902.10
2019-04-25T22:48:08.696Z,97915.47
2019-04-25T22:53:21.839Z,97901.06
2019-04-25T22:58:23.383Z,97912.03
2019-04-25T23:03:37.285Z,97906.69
2019-04-25T23:08:42.652Z,97883.88
2019-04-25T23:13:48.450Z,97864.97
2019-04-25T23:18:55.442Z,97854.70
2019-04-25T23:24:00.751Z,97856.83
2019-04-25T23:29:08.065Z,97862.95
2019-04-25T23:34:13.779Z,97866.02
2019-04-25T23:39:19.526Z,97876.67
2019-04-25T23:44:24.997Z,97876.55
2019-04-25T23:49:32.959Z,97875.36
2019-04-25T23:54:38.765Z,97888.91
2019-04-25T23:59:44.449Z,97885.47
